createdAt,value
2022-07-27T00:01:04.448Z,98431.94
2022-07-27T00:03:31.525Z,98440.22
2022-07-27T00:05:58.367Z,98445.66
2022-07-27T00:08:25.170Z,98441.44
2022-07-27T00:10:53.093Z,98442.28
2022-07-27T00:13:20.264Z,98446.06
2022-07-27T00:15:47.262Z,98438.31
2022-07-27T00:18:14.511Z,98442.34
2022-07-27T00:20:41.792Z,98441.75
2022-07-27T00:23:10.117Z,98445.53
2022-07-27T00:25:37.119Z,98434.38
2022-07-27T00:28:04.438Z,98439.00
2022-07-27T00:30:31.508Z,98446.41
2022-07-27T00:32:58.555Z,98445.69
2022-07-27T00:35:25.555Z,98441.56
2022-07-27T00:37:53.016Z,98448.25
2022-07-27T00:40:20.130Z,98453.25
2022-07-27T00:42:46.979Z,98448.16
2022-07-27T00:45:14.281Z,98450.81
2022-07-27T00:47:41.593Z,98448.41
2022-07-27T00:50:08.773Z,98448.78
2022-07-27T00:52:36.694Z,98444.66
2022-07-27T00:55:04.845Z,98458.25
2022-07-27T00:57:31.749Z,98458.63
2022-07-27T00:59:58.812Z,98454.50
2022-07-27T01:02:26.577Z,98447.00
2022-07-27T01:04:53.888Z,98448.09
2022-07-27T01:07:26.094Z,98459.13
2022-07-27T01:09:59.877Z,98455.84
2022-07-27T01:12:32.245Z,98458.03
2022-07-27T01:14:59.837Z,98460.72
2022-07-27T01:17:30.885Z,98455.50
2022-07-27T01:19:59.042Z,98453.94
2022-07-27T01:22:26.515Z,98448.50
2022-07-27T01:24:53.446Z,98455.63
2022-07-27T01:27:20.335Z,98455.50
2022-07-27T01:29:48.775Z,98451.88
2022-07-27T01:32:16.205Z,98447.38
2022-07-27T01:34:43.292Z,98454.03
2022-07-27T01:37:10.340Z,98456.47
2022-07-27T01:39:37.110Z,98452.25
2022-07-27T01:42:04.347Z,98446.31
2022-07-27T01:44:31.373Z,98447.16
2022-07-27T01:46:58.152Z,98442.66
2022-07-27T01:49:25.143Z,98440.97
2022-07-27T01:51:52.304Z,98443.91
2022-07-27T01:54:19.202Z,98436.84
2022-07-27T01:56:46.044Z,98444.13
2022-07-27T01:59:16.397Z,98441.72
2022-07-27T02:01:44.720Z,98444.50
2022-07-27T02:04:11.810Z,98438.56
2022-07-27T02:06:39.470Z,98441.47
2022-07-27T02:09:06.647Z,98438.06
2022-07-27T02:11:52.219Z,98437.34
2022-07-27T02:14:21.397Z,98435.91
2022-07-27T02:16:48.758Z,98434.81
2022-07-27T02:19:18.262Z,98433.84
2022-07-27T02:21:45.742Z,98434.09
2022-07-27T02:24:13.121Z,98440.59
2022-07-27T02:26:39.951Z,98442.41
2022-07-27T02:29:07.270Z,98444.34
2022-07-27T02:31:34.228Z,98441.88
2022-07-27T02:34:01.100Z,98436.94
2022-07-27T02:36:30.941Z,98440.69
2022-07-27T02:38:58.380Z,98444.44
2022-07-27T02:41:25.379Z,98450.00
2022-07-27T02:43:52.386Z,98448.28
2022-07-27T02:46:19.463Z,98454.59
2022-07-27T02:48:46.842Z,98450.22
2022-07-27T02:51:15.278Z,98453.75
2022-07-27T02:53:42.503Z,98456.53
2022-07-27T02:56:09.471Z,98453.13
2022-07-27T02:58:37.590Z,98460.25
2022-07-27T03:01:05.580Z,98469.19
2022-07-27T03:03:36.655Z,98467.97
2022-07-27T03:06:06.120Z,98461.34
2022-07-27T03:08:33.232Z,98467.41
2022-07-27T03:11:00.174Z,98464.50
2022-07-27T03:13:28.967Z,98467.78
2022-07-27T03:15:56.459Z,98473.50
2022-07-27T03:18:23.516Z,98483.63
2022-07-27T03:20:50.683Z,98480.75
2022-07-27T03:23:20.370Z,98481.03
2022-07-27T03:25:47.163Z,98483.94
2022-07-27T03:28:14.210Z,98483.34
2022-07-27T03:30:41.209Z,98472.84
2022-07-27T03:33:08.040Z,98479.25
2022-07-27T03:35:35.410Z,98477.53
2022-07-27T03:38:02.456Z,98482.00
2022-07-27T03:40:32.096Z,98478.34
2022-07-27T03:42:59.744Z,98472.03
2022-07-27T03:45:26.955Z,98471.19
2022-07-27T03:47:53.849Z,98473.81
2022-07-27T03:50:22.627Z,98480.97
2022-07-27T03:52:50.062Z,98480.94
2022-07-27T03:55:16.860Z,98474.56
2022-07-27T03:57:43.936Z,98479.47
2022-07-27T04:00:14.777Z,98483.19
2022-07-27T04:02:41.745Z,98477.66
2022-07-27T04:05:10.220Z,98479.78
2022-07-27T04:07:37.004Z,98480.28
2022-07-27T04:10:05.392Z,98485.94
2022-07-27T04:12:32.705Z,98481.16
2022-07-27T04:15:02.686Z,98493.41
2022-07-27T04:17:54.703Z,98492.75
2022-07-27T04:20:16.655Z,98492.72
2022-07-27T04:22:43.493Z,98495.56
2022-07-27T04:25:10.851Z,98495.72
2022-07-27T04:27:38.512Z,98501.00
2022-07-27T04:30:09.418Z,98505.28
2022-07-27T04:32:36.910Z,98500.78
2022-07-27T04:35:04.434Z,98505.06
2022-07-27T04:37:33.075Z,98513.09
2022-07-27T04:40:00.465Z,98510.94
2022-07-27T04:42:28.619Z,98507.13
2022-07-27T04:44:55.523Z,98511.34
2022-07-27T04:47:22.551Z,98509.97
2022-07-27T04:49:49.682Z,98497.59
2022-07-27T04:52:17.201Z,98507.16
2022-07-27T04:54:44.610Z,98515.22
2022-07-27T04:57:11.788Z,98516.88
2022-07-27T04:59:38.600Z,98513.94
2022-07-27T05:02:05.597Z,98518.28
2022-07-27T05:04:32.807Z,98524.91
2022-07-27T05:06:59.703Z,98522.09
2022-07-27T05:09:26.536Z,98526.44
2022-07-27T05:11:53.503Z,98537.16
2022-07-27T05:14:21.349Z,98541.53
2022-07-27T05:16:48.806Z,98536.75
2022-07-27T05:19:16.109Z,98534.50
2022-07-27T05:21:43.285Z,98541.44
2022-07-27T05:24:12.866Z,98544.06
2022-07-27T05:26:39.973Z,98545.63
2022-07-27T05:29:06.832Z,98543.94
2022-07-27T05:31:33.767Z,98542.28
2022-07-27T05:34:00.796Z,98536.19
2022-07-27T05:36:27.619Z,98541.41
2022-07-27T05:38:54.604Z,98536.75
2022-07-27T05:41:26.026Z,98541.38
2022-07-27T05:43:56.972Z,98541.78
2022-07-27T05:46:24.922Z,98545.72
2022-07-27T05:48:53.431Z,98556.59
2022-07-27T05:51:20.399Z,98552.06
2022-07-27T05:53:47.419Z,98544.19
2022-07-27T05:56:14.256Z,98546.72
2022-07-27T05:58:41.094Z,98542.22
2022-07-27T06:01:08.246Z,98552.22
2022-07-27T06:03:35.211Z,98549.28
2022-07-27T06:06:20.816Z,98551.13
2022-07-27T06:08:47.808Z,98549.03
2022-07-27T06:11:14.740Z,98557.06
2022-07-27T06:13:42.453Z,98557.03
2022-07-27T06:16:10.125Z,98570.28
2022-07-27T06:18:37.206Z,98569.31
2022-07-27T06:21:04.762Z,98574.56
2022-07-27T06:23:31.928Z,98571.03
2022-07-27T06:25:58.940Z,98567.75
2022-07-27T06:28:25.965Z,98567.19
2022-07-27T06:30:53.684Z,98568.25
2022-07-27T06:33:31.124Z,98574.00
2022-07-27T06:35:59.737Z,98576.50
2022-07-27T06:38:29.058Z,98577.63
2022-07-27T06:40:56.602Z,98579.88
2022-07-27T06:43:26.688Z,98577.94
2022-07-27T06:45:54.608Z,98572.88
2022-07-27T06:48:22.620Z,98583.50
2022-07-27T06:50:50.765Z,98578.69
2022-07-27T06:53:21.034Z,98578.00
2022-07-27T06:55:48.626Z,98574.19
2022-07-27T06:58:16.287Z,98578.69
2022-07-27T07:00:43.331Z,98585.06
2022-07-27T07:03:11.317Z,98574.91
2022-07-27T07:05:45.139Z,98568.09
2022-07-27T07:08:13.606Z,98570.03
2022-07-27T07:10:43.292Z,98567.97
2022-07-27T07:13:10.112Z,98577.28
2022-07-27T07:15:38.872Z,98579.78
2022-07-27T07:18:07.773Z,98574.28
2022-07-27T07:20:35.580Z,98582.38
2022-07-27T07:23:02.661Z,98573.34
2022-07-27T07:25:30.111Z,98576.75
2022-07-27T07:27:57.167Z,98580.53
2022-07-27T07:30:24.766Z,98584.91
2022-07-27T07:32:52.006Z,98578.84
2022-07-27T07:35:19.163Z,98578.09
2022-07-27T07:37:50.239Z,98578.41
2022-07-27T07:43:07.177Z,98591.44
2022-07-27T07:45:38.231Z,98584.00
2022-07-27T07:48:18.197Z,98590.38
2022-07-27T07:50:45.255Z,98592.81
2022-07-27T07:53:14.957Z,98597.72
2022-07-27T07:55:41.796Z,98599.19
2022-07-27T07:58:08.840Z,98595.22
2022-07-27T08:00:36.076Z,98608.97
2022-07-27T08:03:03.162Z,98605.13
2022-07-27T08:05:33.114Z,98615.72
2022-07-27T08:08:00.012Z,98620.09
2022-07-27T08:10:28.248Z,98614.84
2022-07-27T08:12:56.607Z,98611.69
2022-07-27T08:15:29.972Z,98623.16
2022-07-27T08:18:02.608Z,98632.59
2022-07-27T08:20:29.762Z,98628.22
2022-07-27T08:22:56.707Z,98633.50
2022-07-27T08:25:23.896Z,98642.19
2022-07-27T08:27:50.740Z,98646.16
2022-07-27T08:30:17.782Z,98647.31
2022-07-27T08:32:49.059Z,98643.53
2022-07-27T08:35:18.015Z,98648.50
2022-07-27T08:37:45.038Z,98647.53
2022-07-27T08:40:39.777Z,98642.56
2022-07-27T08:43:01.586Z,98644.66
2022-07-27T08:45:30.531Z,98646.13
2022-07-27T08:47:57.921Z,98653.28
2022-07-27T08:50:27.275Z,98653.81
2022-07-27T08:53:00.377Z,98657.72
2022-07-27T08:55:28.666Z,98665.22
2022-07-27T08:58:00.593Z,98658.97
2022-07-27T09:00:30.734Z,98665.91
2022-07-27T09:02:58.220Z,98678.19
2022-07-27T09:05:25.396Z,98664.19
2022-07-27T09:07:54.855Z,98672.47
2022-07-27T09:10:34.228Z,98669.44
2022-07-27T09:13:17.366Z,98672.31
2022-07-27T09:16:16.450Z,98668.91
2022-07-27T09:18:38.860Z,98678.56
2022-07-27T09:21:21.661Z,98672.66
2022-07-27T09:23:52.188Z,98668.09
2022-07-27T09:26:35.149Z,98668.94
2022-07-27T09:29:04.395Z,98669.28
2022-07-27T09:31:32.265Z,98669.94
2022-07-27T09:34:02.092Z,98671.13
2022-07-27T09:36:30.354Z,98677.88
2022-07-27T09:39:03.898Z,98678.88
2022-07-27T09:41:46.508Z,98690.03
2022-07-27T09:44:32.521Z,98686.16
2022-07-27T09:47:01.236Z,98687.50
2022-07-27T09:49:30.832Z,98694.75
2022-07-27T09:52:01.370Z,98691.19
2022-07-27T09:54:42.462Z,98690.88
2022-07-27T09:57:09.791Z,98684.97
2022-07-27T09:59:36.602Z,98699.16
2022-07-27T10:02:03.796Z,98697.78
2022-07-27T10:04:33.189Z,98698.78
2022-07-27T10:07:03.868Z,98704.56
2022-07-27T10:09:34.066Z,98706.53
2022-07-27T10:12:02.014Z,98704.16
2022-07-27T10:14:28.884Z,98709.94
2022-07-27T10:16:56.467Z,98716.16
2022-07-27T10:19:31.926Z,98718.94
2022-07-27T10:21:59.011Z,98721.78
2022-07-27T10:24:32.883Z,98719.91
2022-07-27T10:27:00.436Z,98705.91
2022-07-27T10:29:27.675Z,98702.38
2022-07-27T10:31:54.418Z,98704.88
2022-07-27T10:34:39.572Z,98702.84
2022-07-27T10:37:17.919Z,98707.63
2022-07-27T10:40:12.984Z,98703.56
2022-07-27T10:42:40.884Z,98699.97
2022-07-27T10:45:13.658Z,98701.84
2022-07-27T10:47:46.233Z,98705.78
2022-07-27T10:50:16.496Z,98703.91
2022-07-27T10:52:48.002Z,98698.25
2022-07-27T10:55:30.434Z,98697.66
2022-07-27T10:58:20.424Z,98693.41
2022-07-27T11:00:54.740Z,98690.03
2022-07-27T11:03:23.904Z,98703.94
2022-07-27T11:06:21.945Z,98704.28
2022-07-27T11:09:16.887Z,98692.03
2022-07-27T11:11:37.785Z,98690.19
2022-07-27T11:14:04.694Z,98691.97
2022-07-27T11:16:31.693Z,98680.09
2022-07-27T11:19:03.561Z,98682.06
2022-07-27T11:21:34.267Z,98685.81
2022-07-27T11:24:12.366Z,98681.88
2022-07-27T11:26:42.747Z,98680.13
2022-07-27T11:29:14.854Z,98676.78
2022-07-27T11:31:59.415Z,98684.56
2022-07-27T11:34:34.816Z,98679.72
2022-07-27T11:37:03.755Z,98670.31
2022-07-27T11:42:21.744Z,98667.56
2022-07-27T11:44:52.939Z,98669.25
2022-07-27T11:47:21.802Z,98663.75
2022-07-27T11:49:48.739Z,98662.09
2022-07-27T11:52:17.921Z,98661.13
2022-07-27T11:54:51.561Z,98656.03
2022-07-27T11:57:20.528Z,98666.19
2022-07-27T11:59:47.376Z,98659.31
2022-07-27T12:02:18.159Z,98650.66
2022-07-27T12:04:47.248Z,98658.34
2022-07-27T12:07:17.942Z,98653.72
2022-07-27T12:09:46.337Z,98651.91
2022-07-27T12:12:16.203Z,98642.03
2022-07-27T12:14:54.519Z,98644.13
2022-07-27T12:17:42.831Z,98644.44
2022-07-27T12:20:11.001Z,98634.06
2022-07-27T12:22:48.965Z,98631.19
2022-07-27T12:25:18.779Z,98633.41
2022-07-27T12:27:59.044Z,98641.31
2022-07-27T12:30:45.090Z,98627.72
2022-07-27T12:33:35.704Z,98623.44
2022-07-27T12:36:05.687Z,98621.16
2022-07-27T12:38:46.259Z,98616.16
2022-07-27T12:41:35.345Z,98626.00
2022-07-27T12:44:12.615Z,98623.19
2022-07-27T12:46:56.292Z,98622.66
2022-07-27T12:49:34.397Z,98617.00
2022-07-27T12:52:08.657Z,98616.81
2022-07-27T12:54:35.940Z,98615.31
2022-07-27T12:57:03.561Z,98604.06
2022-07-27T12:59:30.464Z,98612.53
2022-07-27T13:01:57.507Z,98607.50
2022-07-27T13:04:24.500Z,98607.56
2022-07-27T13:06:51.348Z,98609.13
2022-07-27T13:09:18.321Z,98609.94
2022-07-27T13:11:48.078Z,98607.84
2022-07-27T13:14:15.447Z,98613.09
2022-07-27T13:16:42.553Z,98609.94
2022-07-27T13:19:09.802Z,98606.34
2022-07-27T13:21:36.994Z,98603.19
2022-07-27T13:24:04.350Z,98601.28
2022-07-27T13:26:31.191Z,98609.66
2022-07-27T13:28:58.001Z,98606.75
2022-07-27T13:31:25.775Z,98611.63
2022-07-27T13:33:53.007Z,98616.84
2022-07-27T13:36:19.780Z,98609.72
2022-07-27T13:38:46.918Z,98610.13
2022-07-27T13:41:13.751Z,98603.84
2022-07-27T13:43:40.705Z,98601.34
2022-07-27T13:46:08.625Z,98612.13
2022-07-27T13:48:35.579Z,98600.97
2022-07-27T13:51:03.650Z,98596.94
2022-07-27T13:53:30.869Z,98585.69
2022-07-27T13:55:57.783Z,98593.25
2022-07-27T13:58:24.853Z,98602.75
2022-07-27T14:00:52.063Z,98597.13
2022-07-27T14:03:19.516Z,98595.44
2022-07-27T14:05:49.113Z,98591.19
2022-07-27T14:08:18.816Z,98598.69
2022-07-27T14:10:45.771Z,98597.22
2022-07-27T14:13:14.565Z,98601.66
2022-07-27T14:15:52.957Z,98598.47
2022-07-27T14:18:24.807Z,98606.44
2022-07-27T14:20:51.954Z,98605.16
2022-07-27T14:23:18.931Z,98601.81
2022-07-27T14:25:46.480Z,98598.06
2022-07-27T14:28:13.625Z,98604.97
2022-07-27T14:30:40.466Z,98603.94
2022-07-27T14:33:07.217Z,98599.16
2022-07-27T14:35:39.901Z,98595.09
2022-07-27T14:38:07.659Z,98598.94
2022-07-27T14:40:34.475Z,98599.81
2022-07-27T14:43:01.780Z,98593.44
2022-07-27T14:45:44.652Z,98588.09
2022-07-27T14:48:28.234Z,98585.63
2022-07-27T14:51:01.106Z,98592.47
2022-07-27T14:53:28.046Z,98596.16
2022-07-27T14:55:54.934Z,98587.88
2022-07-27T14:58:21.866Z,98599.91
2022-07-27T15:00:48.933Z,98598.31
2022-07-27T15:03:16.107Z,98592.09
2022-07-27T15:05:50.470Z,98592.56
2022-07-27T15:08:20.091Z,98596.56
2022-07-27T15:10:47.951Z,98586.94
2022-07-27T15:13:15.032Z,98589.28
2022-07-27T15:15:42.468Z,98591.16
2022-07-27T15:18:09.451Z,98591.75
2022-07-27T15:20:36.805Z,98585.97
2022-07-27T15:23:06.647Z,98586.06
2022-07-27T15:25:34.013Z,98587.41
2022-07-27T15:28:01.109Z,98588.53
2022-07-27T15:30:28.389Z,98590.75
2022-07-27T15:32:55.174Z,98587.81
2022-07-27T15:35:22.069Z,98591.00
2022-07-27T15:37:53.535Z,98583.75
2022-07-27T15:40:38.661Z,98589.75
2022-07-27T15:43:08.503Z,98577.22
2022-07-27T15:45:38.943Z,98578.44
2022-07-27T15:48:08.636Z,98575.00
2022-07-27T15:50:40.134Z,98577.53
2022-07-27T15:53:07.927Z,98568.06
2022-07-27T15:55:37.511Z,98567.09
2022-07-27T15:58:06.269Z,98566.41
2022-07-27T16:00:39.184Z,98568.38
2022-07-27T16:03:07.772Z,98565.38
2022-07-27T16:05:35.287Z,98562.38
2022-07-27T16:08:02.520Z,98553.72
2022-07-27T16:10:30.266Z,98560.06
2022-07-27T16:12:57.771Z,98549.94
2022-07-27T16:15:44.691Z,98552.00
2022-07-27T16:18:12.294Z,98548.66
2022-07-27T16:20:39.528Z,98544.06
2022-07-27T16:23:18.818Z,98544.81
2022-07-27T16:26:10.036Z,98541.53
2022-07-27T16:28:39.855Z,98543.03
2022-07-27T16:31:08.414Z,98541.88
2022-07-27T16:33:35.363Z,98539.63
2022-07-27T16:36:02.308Z,98535.97
2022-07-27T16:38:29.468Z,98533.50
2022-07-27T16:40:56.335Z,98540.84
2022-07-27T16:43:23.222Z,98536.53
2022-07-27T16:46:07.006Z,98541.00
2022-07-27T16:48:41.622Z,98540.50
2022-07-27T16:51:14.566Z,98536.47
2022-07-27T16:53:45.706Z,98536.34
2022-07-27T16:56:12.741Z,98530.66
2022-07-27T16:58:39.878Z,98541.34
2022-07-27T17:01:07.658Z,98544.97
2022-07-27T17:03:34.849Z,98546.50
2022-07-27T17:06:06.049Z,98549.72
2022-07-27T17:08:35.785Z,98544.19
2022-07-27T17:11:02.933Z,98555.25
2022-07-27T17:13:34.545Z,98546.31
2022-07-27T17:16:06.916Z,98543.31
2022-07-27T17:18:40.302Z,98548.69
2022-07-27T17:21:15.247Z,98544.66
2022-07-27T17:23:44.013Z,98551.59
2022-07-27T17:26:12.247Z,98554.16
2022-07-27T17:28:40.419Z,98553.84
2022-07-27T17:31:10.304Z,98552.03
2022-07-27T17:33:38.627Z,98559.97
2022-07-27T17:36:09.539Z,98563.66
2022-07-27T17:38:41.414Z,98570.09
2022-07-27T17:41:08.269Z,98571.31
2022-07-27T17:43:38.656Z,98570.81
2022-07-27T17:46:07.548Z,98571.66
2022-07-27T17:48:35.700Z,98573.81
2022-07-27T17:51:03.608Z,98565.91
2022-07-27T17:53:30.724Z,98569.91
2022-07-27T17:55:57.639Z,98571.38
2022-07-27T17:58:29.762Z,98569.25
2022-07-27T18:00:57.879Z,98573.22
2022-07-27T18:03:24.724Z,98564.75
2022-07-27T18:05:51.522Z,98570.19
2022-07-27T18:08:18.668Z,98573.94
2022-07-27T18:10:45.648Z,98566.75
2022-07-27T18:13:12.690Z,98574.28
2022-07-27T18:15:48.717Z,98582.22
2022-07-27T18:18:26.537Z,98583.75
2022-07-27T18:20:56.660Z,98591.25
2022-07-27T18:23:26.084Z,98596.59
2022-07-27T18:25:53.030Z,98600.09
2022-07-27T18:28:21.284Z,98600.88
2022-07-27T18:30:50.745Z,98612.94
2022-07-27T18:33:17.932Z,98613.66
2022-07-27T18:35:46.445Z,98614.53
2022-07-27T18:38:14.218Z,98610.75
2022-07-27T18:40:42.767Z,98623.06
2022-07-27T18:43:10.872Z,98621.66
2022-07-27T18:45:39.305Z,98628.13
2022-07-27T18:48:10.391Z,98628.53
2022-07-27T18:50:39.592Z,98638.53
2022-07-27T18:53:07.053Z,98638.06
2022-07-27T18:55:33.940Z,98644.09
2022-07-27T18:58:01.906Z,98642.13
2022-07-27T19:00:28.860Z,98650.09
2022-07-27T19:02:58.068Z,98648.38
2022-07-27T19:05:32.260Z,98641.00
2022-07-27T19:08:00.023Z,98653.50
2022-07-27T19:10:27.337Z,98640.75
2022-07-27T19:12:55.687Z,98645.34
2022-07-27T19:15:22.771Z,98639.97
2022-07-27T19:17:49.816Z,98643.69
2022-07-27T19:20:16.723Z,98655.66
2022-07-27T19:22:47.801Z,98654.88
2022-07-27T19:25:15.622Z,98656.78
2022-07-27T19:27:43.234Z,98660.19
2022-07-27T19:30:12.390Z,98664.59
2022-07-27T19:32:39.659Z,98667.94
2022-07-27T19:35:07.040Z,98671.81
2022-07-27T19:37:34.095Z,98667.22
2022-07-27T19:40:20.233Z,98672.06
2022-07-27T19:42:48.273Z,98663.97
2022-07-27T19:45:15.410Z,98669.94
2022-07-27T19:47:42.296Z,98673.34
2022-07-27T19:50:09.574Z,98680.63
2022-07-27T19:52:36.648Z,98672.25
2022-07-27T19:55:04.873Z,98672.50
2022-07-27T19:57:31.711Z,98674.78
2022-07-27T19:59:58.977Z,98680.72
2022-07-27T20:02:25.917Z,98678.53
2022-07-27T20:04:53.099Z,98675.38
2022-07-27T20:07:20.167Z,98677.56
2022-07-27T20:09:48.509Z,98684.69
2022-07-27T20:12:15.382Z,98676.22
2022-07-27T20:14:42.527Z,98682.75
2022-07-27T20:17:09.536Z,98690.00
2022-07-27T20:19:36.386Z,98687.47
2022-07-27T20:22:03.625Z,98687.84
2022-07-27T20:24:30.571Z,98691.69
2022-07-27T20:26:57.586Z,98687.56
2022-07-27T20:29:29.127Z,98685.38
2022-07-27T20:31:58.956Z,98692.03
2022-07-27T20:34:26.189Z,98695.88
2022-07-27T20:36:55.242Z,98694.41
2022-07-27T20:39:23.714Z,98696.44
2022-07-27T20:41:51.137Z,98695.97
2022-07-27T20:44:17.954Z,98700.34
2022-07-27T20:46:44.787Z,98699.72
2022-07-27T20:49:12.117Z,98703.66
2022-07-27T20:51:40.863Z,98709.13
2022-07-27T20:54:07.976Z,98705.34
2022-07-27T20:56:34.982Z,98713.66
2022-07-27T20:59:01.933Z,98714.75
2022-07-27T21:01:34.525Z,98722.44
2022-07-27T21:04:01.702Z,98722.75
2022-07-27T21:06:28.917Z,98729.38
2022-07-27T21:08:55.808Z,98726.84
2022-07-27T21:11:22.808Z,98734.09
2022-07-27T21:13:49.689Z,98738.75
2022-07-27T21:16:16.556Z,98737.91
2022-07-27T21:18:43.756Z,98731.97
2022-07-27T21:21:10.576Z,98729.63
2022-07-27T21:23:56.416Z,98729.97
2022-07-27T21:26:23.565Z,98734.78
2022-07-27T21:28:50.375Z,98726.06
2022-07-27T21:31:17.432Z,98732.44
2022-07-27T21:33:44.530Z,98735.13
2022-07-27T21:36:11.380Z,98737.88
2022-07-27T21:38:38.145Z,98739.78
2022-07-27T21:41:05.875Z,98728.22
2022-07-27T21:43:33.686Z,98738.00
2022-07-27T21:46:00.546Z,98729.16
2022-07-27T21:48:27.635Z,98729.28
2022-07-27T21:50:54.403Z,98733.84
2022-07-27T21:53:21.265Z,98734.81
2022-07-27T21:55:48.298Z,98748.97
2022-07-27T21:58:15.553Z,98751.63
2022-07-27T22:00:42.560Z,98755.47
2022-07-27T22:03:10.119Z,98757.28
2022-07-27T22:05:37.124Z,98759.81
2022-07-27T22:08:04.100Z,98756.22
2022-07-27T22:10:31.641Z,98751.97
2022-07-27T22:12:58.605Z,98745.78
2022-07-27T22:15:26.052Z,98753.88
2022-07-27T22:17:53.212Z,98748.75
2022-07-27T22:20:21.227Z,98749.59
2022-07-27T22:22:48.837Z,98756.63
2022-07-27T22:25:16.152Z,98757.72
2022-07-27T22:27:42.989Z,98750.91
2022-07-27T22:30:09.919Z,98759.09
2022-07-27T22:32:36.936Z,98761.03
2022-07-27T22:35:03.974Z,98762.72
2022-07-27T22:37:30.814Z,98763.69
2022-07-27T22:39:57.888Z,98756.03
2022-07-27T22:42:24.708Z,98771.00
2022-07-27T22:44:51.509Z,98773.78
2022-07-27T22:47:18.802Z,98777.19
2022-07-27T22:49:45.648Z,98770.06
2022-07-27T22:52:12.506Z,98768.13
2022-07-27T22:54:39.594Z,98781.44
2022-07-27T22:57:06.482Z,98770.91
2022-07-27T22:59:34.714Z,98769.31
2022-07-27T23:02:02.292Z,98770.06
2022-07-27T23:04:29.169Z,98766.75
2022-07-27T23:06:56.670Z,98763.34
2022-07-27T23:09:24.083Z,98766.03
2022-07-27T23:11:51.390Z,98758.88
2022-07-27T23:14:18.933Z,98750.81
2022-07-27T23:16:46.447Z,98756.13
2022-07-27T23:19:13.377Z,98756.97
2022-07-27T23:21:42.040Z,98755.38
2022-07-27T23:24:11.167Z,98761.03
2022-07-27T23:26:40.389Z,98759.31
2022-07-27T23:29:07.314Z,98758.47
2022-07-27T23:31:34.656Z,98760.19
2022-07-27T23:34:01.671Z,98769.09
2022-07-27T23:36:28.575Z,98769.41
2022-07-27T23:38:55.584Z,98771.13
2022-07-27T23:41:22.569Z,98769.31
2022-07-27T23:43:49.378Z,98778.88
2022-07-27T23:46:16.520Z,98780.28
2022-07-27T23:48:44.054Z,98779.41
2022-07-27T23:51:17.889Z,98781.31
2022-07-27T23:53:45.225Z,98779.41
2022-07-27T23:56:12.010Z,98775.91
2022-07-27T23:58:38.836Z,98777.72
